createdAt,value
2022-10-25T00:01:31.243Z,12.30
2022-10-25T00:03:33.635Z,12.30
2022-10-25T00:05:36.375Z,12.30
2022-10-25T00:07:38.608Z,12.30
2022-10-25T00:09:40.895Z,12.30
2022-10-25T00:11:43.372Z,12.30
2022-10-25T00:13:45.621Z,12.30
2022-10-25T00:15:47.903Z,12.30
2022-10-25T00:17:52.959Z,12.30
2022-10-25T00:19:55.146Z,12.30
2022-10-25T00:22:00.431Z,12.30
2022-10-25T00:24:02.695Z,12.30
2022-10-25T00:26:06.577Z,12.30
2022-10-25T00:28:08.825Z,12.30
2022-10-25T00:30:12.623Z,12.30
2022-10-25T00:32:14.827Z,12.30
2022-10-25T00:34:19.618Z,12.30
2022-10-25T00:36:23.694Z,12.30
2022-10-25T00:38:25.898Z,12.30
2022-10-25T00:40:28.149Z,12.30
2022-10-25T00:42:30.413Z,12.30
2022-10-25T00:44:51.201Z,12.30
2022-10-25T00:46:54.268Z,12.30
2022-10-25T00:49:03.266Z,12.30
2022-10-25T00:51:09.147Z,12.40
2022-10-25T00:53:14.990Z,12.40
2022-10-25T00:55:20.549Z,12.50
2022-10-25T00:57:27.700Z,12.40
2022-10-25T00:59:30.341Z,12.50
2022-10-25T01:01:33.071Z,12.50
2022-10-25T01:03:38.699Z,12.50
2022-10-25T01:05:41.424Z,12.60
2022-10-25T01:07:46.548Z,12.60
2022-10-25T01:09:49.966Z,12.60
2022-10-25T01:11:52.205Z,12.60
2022-10-25T01:13:55.055Z,12.60
2022-10-25T01:16:04.612Z,12.60
2022-10-25T01:18:16.981Z,12.60
2022-10-25T01:20:57.025Z,12.60
2022-10-25T01:23:19.572Z,12.60
2022-10-25T01:25:48.593Z,12.60
2022-10-25T01:28:07.389Z,12.70
2022-10-25T01:30:14.313Z,12.60
2022-10-25T01:32:24.670Z,12.70
2022-10-25T01:34:30.338Z,12.70
2022-10-25T01:36:41.639Z,12.70
2022-10-25T01:38:50.036Z,12.80
2022-10-25T01:41:01.223Z,12.70
2022-10-25T01:43:08.694Z,12.70
2022-10-25T01:45:16.222Z,12.70
2022-10-25T01:47:24.838Z,13.20
2022-10-25T01:49:37.039Z,12.70
2022-10-25T01:51:39.363Z,12.80
2022-10-25T01:53:46.257Z,12.80
2022-10-25T01:55:54.681Z,12.80
2022-10-25T01:58:06.616Z,12.80
2022-10-25T02:00:11.686Z,12.80
2022-10-25T02:02:26.398Z,12.80
2022-10-25T02:04:40.094Z,12.80
2022-10-25T02:06:51.032Z,12.80
2022-10-25T02:08:59.072Z,12.80
2022-10-25T02:11:09.379Z,12.80
2022-10-25T02:13:21.755Z,12.80
2022-10-25T02:15:30.321Z,12.80
2022-10-25T02:17:38.133Z,12.80
2022-10-25T02:19:43.918Z,12.80
2022-10-25T02:21:48.232Z,12.80
2022-10-25T02:23:51.447Z,12.80
2022-10-25T02:25:54.838Z,12.80
2022-10-25T02:27:58.435Z,12.80
2022-10-25T02:30:01.562Z,12.70
2022-10-25T02:32:04.780Z,12.70
2022-10-25T02:34:09.714Z,12.70
2022-10-25T02:36:14.994Z,13.00
2022-10-25T02:38:17.228Z,12.80
2022-10-25T02:40:19.713Z,12.80
2022-10-25T02:42:21.947Z,12.80
2022-10-25T02:44:24.292Z,12.80
2022-10-25T02:46:26.592Z,12.80
2022-10-25T02:48:29.568Z,12.80
2022-10-25T02:50:34.405Z,12.80
2022-10-25T02:52:36.674Z,12.80
2022-10-25T02:54:38.897Z,12.90
2022-10-25T02:56:41.085Z,12.90
2022-10-25T02:58:44.528Z,12.90
2022-10-25T03:00:46.795Z,12.90
2022-10-25T03:02:49.362Z,12.90
2022-10-25T03:04:51.918Z,12.90
2022-10-25T03:06:57.649Z,12.90
2022-10-25T03:08:59.845Z,12.90
2022-10-25T03:11:02.394Z,12.90
2022-10-25T03:13:04.573Z,12.90
2022-10-25T03:15:08.213Z,12.90
2022-10-25T03:17:10.438Z,12.90
2022-10-25T03:19:12.742Z,12.90
2022-10-25T03:21:14.896Z,12.90
2022-10-25T03:23:19.753Z,12.90
2022-10-25T03:25:21.899Z,12.90
2022-10-25T03:27:24.117Z,12.80
2022-10-25T03:29:26.364Z,12.80
2022-10-25T03:31:30.480Z,12.80
2022-10-25T03:33:32.661Z,12.80
2022-10-25T03:35:34.911Z,12.80
2022-10-25T03:37:37.173Z,12.80
2022-10-25T03:39:42.027Z,12.80
2022-10-25T03:41:44.235Z,12.80
2022-10-25T03:43:46.412Z,12.70
2022-10-25T03:45:48.609Z,12.80
2022-10-25T03:47:50.937Z,12.80
2022-10-25T03:49:54.806Z,12.80
2022-10-25T03:51:59.990Z,12.80
2022-10-25T03:54:05.007Z,12.80
2022-10-25T03:56:12.555Z,12.80
2022-10-25T03:58:14.891Z,13.60
2022-10-25T04:00:17.433Z,12.80
2022-10-25T04:02:19.624Z,12.80
2022-10-25T04:04:22.172Z,12.80
2022-10-25T04:06:24.380Z,12.80
2022-10-25T04:08:26.628Z,12.80
2022-10-25T04:10:28.873Z,12.80
2022-10-25T04:12:33.730Z,12.80
2022-10-25T04:14:35.988Z,12.80
2022-10-25T04:16:38.370Z,12.80
2022-10-25T04:18:40.602Z,13.00
2022-10-25T04:20:42.776Z,12.80
2022-10-25T04:22:45.054Z,12.80
2022-10-25T04:24:47.382Z,12.80
2022-10-25T04:26:49.685Z,12.70
2022-10-25T04:28:56.629Z,12.80
2022-10-25T04:30:58.813Z,12.70
2022-10-25T04:33:01.059Z,12.70
2022-10-25T04:35:03.664Z,12.70
2022-10-25T04:37:05.959Z,12.70
2022-10-25T04:39:08.292Z,12.70
2022-10-25T04:41:11.121Z,12.70
2022-10-25T04:43:14.039Z,12.70
2022-10-25T04:45:18.964Z,13.20
2022-10-25T04:47:21.341Z,12.70
2022-10-25T04:49:23.535Z,12.90
2022-10-25T04:51:26.693Z,12.70
2022-10-25T04:53:28.965Z,12.70
2022-10-25T04:55:32.363Z,12.70
2022-10-25T04:57:34.620Z,12.70
2022-10-25T04:59:36.830Z,12.70
2022-10-25T05:01:41.841Z,12.70
2022-10-25T05:03:44.606Z,12.70
2022-10-25T05:05:46.908Z,12.70
2022-10-25T05:07:49.237Z,12.70
2022-10-25T05:09:51.435Z,12.70
2022-10-25T05:11:53.635Z,12.70
2022-10-25T05:13:55.871Z,12.80
2022-10-25T05:15:58.852Z,12.70
2022-10-25T05:18:03.965Z,12.70
2022-10-25T05:20:07.328Z,12.70
2022-10-25T05:22:09.712Z,12.70
2022-10-25T05:24:11.966Z,12.70
2022-10-25T05:26:16.613Z,12.80
2022-10-25T05:28:18.835Z,12.80
2022-10-25T05:30:21.046Z,12.80
2022-10-25T05:32:23.233Z,12.80
2022-10-25T05:34:28.033Z,12.80
2022-10-25T05:36:30.363Z,12.80
2022-10-25T05:38:35.606Z,12.80
2022-10-25T05:40:40.406Z,12.80
2022-10-25T05:42:42.650Z,12.90
2022-10-25T05:44:44.946Z,12.90
2022-10-25T05:46:47.281Z,12.90
2022-10-25T05:48:50.800Z,13.00
2022-10-25T05:51:14.523Z,12.90
2022-10-25T05:53:30.097Z,12.90
2022-10-25T05:55:34.125Z,12.90
2022-10-25T05:57:36.981Z,12.90
2022-10-25T05:59:41.609Z,13.00
2022-10-25T06:01:46.418Z,12.90
2022-10-25T06:03:49.519Z,12.90
2022-10-25T06:05:51.730Z,12.90
2022-10-25T06:07:56.910Z,12.90
2022-10-25T06:09:59.163Z,12.80
2022-10-25T06:12:02.982Z,12.90
2022-10-25T06:14:10.749Z,12.80
2022-10-25T06:16:14.546Z,12.80
2022-10-25T06:18:16.893Z,12.80
2022-10-25T06:20:19.113Z,12.70
2022-10-25T06:22:21.475Z,12.70
2022-10-25T06:24:26.313Z,12.70
2022-10-25T06:26:30.091Z,12.70
2022-10-25T06:28:32.405Z,12.70
2022-10-25T06:30:36.151Z,12.70
2022-10-25T06:32:38.379Z,12.70
2022-10-25T06:34:40.782Z,12.70
2022-10-25T06:36:45.273Z,12.80
2022-10-25T06:38:51.342Z,12.70
2022-10-25T06:40:58.522Z,12.80
2022-10-25T06:43:03.498Z,12.70
2022-10-25T06:45:06.743Z,12.80
2022-10-25T06:47:17.733Z,12.70
2022-10-25T06:49:20.448Z,12.80
2022-10-25T06:51:23.958Z,12.80
2022-10-25T06:53:27.114Z,12.80
2022-10-25T06:55:29.979Z,12.90
2022-10-25T06:57:34.887Z,12.80
2022-10-25T06:59:37.083Z,12.90
2022-10-25T07:01:39.327Z,12.90
2022-10-25T07:03:42.542Z,12.90
2022-10-25T07:05:44.777Z,12.90
2022-10-25T07:07:47.268Z,13.00
2022-10-25T07:09:49.676Z,13.00
2022-10-25T07:11:51.963Z,13.00
2022-10-25T07:13:58.639Z,13.00
2022-10-25T07:16:07.335Z,13.00
2022-10-25T07:18:09.523Z,12.90
2022-10-25T07:20:12.399Z,13.00
2022-10-25T07:22:14.626Z,13.00
2022-10-25T07:24:16.836Z,13.00
2022-10-25T07:26:20.782Z,13.00
2022-10-25T07:28:23.706Z,13.00
2022-10-25T07:30:28.546Z,13.00
2022-10-25T07:32:30.833Z,13.00
2022-10-25T07:34:33.227Z,13.00
2022-10-25T07:36:35.547Z,13.00
2022-10-25T07:38:37.883Z,13.10
2022-10-25T07:40:40.541Z,13.10
2022-10-25T07:42:42.722Z,13.10
2022-10-25T07:46:50.250Z,13.10
2022-10-25T07:48:52.711Z,13.10
2022-10-25T07:50:54.906Z,13.20
2022-10-25T07:52:57.747Z,13.20
2022-10-25T07:54:59.984Z,14.00
2022-10-25T07:57:03.095Z,13.30
2022-10-25T07:59:05.335Z,13.30
2022-10-25T08:01:11.045Z,13.30
2022-10-25T08:03:19.622Z,13.40
2022-10-25T08:05:23.854Z,13.40
2022-10-25T08:07:25.862Z,13.50
2022-10-25T08:09:37.596Z,13.50
2022-10-25T08:11:43.911Z,13.60
2022-10-25T08:13:49.026Z,13.60
2022-10-25T08:15:51.795Z,13.90
2022-10-25T08:17:58.978Z,13.70
2022-10-25T08:20:04.878Z,13.70
2022-10-25T08:22:07.296Z,13.80
2022-10-25T08:24:09.834Z,13.80
2022-10-25T08:26:12.157Z,13.90
2022-10-25T08:28:14.377Z,14.00
2022-10-25T08:30:16.760Z,14.00
2022-10-25T08:32:19.047Z,14.00
2022-10-25T08:34:21.359Z,14.00
2022-10-25T08:36:26.742Z,14.00
2022-10-25T08:38:29.143Z,13.90
2022-10-25T08:40:44.364Z,14.00
2022-10-25T08:42:59.531Z,13.90
2022-10-25T08:45:06.072Z,13.80
2022-10-25T08:47:13.380Z,13.90
2022-10-25T08:49:24.215Z,13.90
2022-10-25T08:51:33.472Z,13.90
2022-10-25T08:53:42.711Z,13.90
2022-10-25T08:56:05.165Z,13.90
2022-10-25T08:58:17.748Z,14.00
2022-10-25T09:00:22.743Z,14.00
2022-10-25T09:02:39.542Z,14.10
2022-10-25T09:04:41.905Z,14.10
2022-10-25T09:06:56.616Z,14.10
2022-10-25T09:09:10.327Z,14.10
2022-10-25T09:11:23.232Z,14.10
2022-10-25T09:13:38.133Z,14.20
2022-10-25T09:15:52.555Z,14.30
2022-10-25T09:17:55.540Z,14.30
2022-10-25T09:20:08.217Z,14.30
2022-10-25T09:22:24.760Z,14.40
2022-10-25T09:24:29.616Z,14.40
2022-10-25T09:26:41.113Z,14.40
2022-10-25T09:28:52.261Z,14.40
2022-10-25T09:30:57.291Z,14.80
2022-10-25T09:33:03.025Z,14.80
2022-10-25T09:35:12.299Z,14.50
2022-10-25T09:37:20.356Z,14.50
2022-10-25T09:39:32.183Z,14.60
2022-10-25T09:41:39.810Z,14.70
2022-10-25T09:43:49.188Z,14.80
2022-10-25T09:45:54.634Z,15.00
2022-10-25T09:48:04.671Z,15.00
2022-10-25T09:50:15.731Z,15.10
2022-10-25T09:52:27.078Z,15.10
2022-10-25T09:54:32.899Z,15.20
2022-10-25T09:56:37.171Z,15.20
2022-10-25T09:58:53.085Z,15.10
2022-10-25T10:00:57.613Z,15.10
2022-10-25T10:03:00.481Z,15.00
2022-10-25T10:05:05.686Z,15.00
2022-10-25T10:07:13.973Z,15.00
2022-10-25T10:09:18.866Z,15.00
2022-10-25T10:11:21.302Z,14.90
2022-10-25T10:13:31.460Z,15.00
2022-10-25T10:15:42.240Z,15.00
2022-10-25T10:17:47.595Z,15.00
2022-10-25T10:20:12.027Z,15.10
2022-10-25T10:22:15.860Z,15.20
2022-10-25T10:24:23.811Z,15.20
2022-10-25T10:26:31.365Z,15.40
2022-10-25T10:28:34.761Z,15.50
2022-10-25T10:30:39.009Z,15.70
2022-10-25T10:35:05.833Z,16.40
2022-10-25T10:37:14.679Z,15.90
2022-10-25T10:39:26.409Z,16.00
2022-10-25T10:41:31.539Z,16.00
2022-10-25T10:43:34.330Z,16.00
2022-10-25T10:45:36.551Z,16.00
2022-10-25T10:47:42.407Z,16.10
2022-10-25T10:49:44.692Z,16.20
2022-10-25T10:51:46.938Z,16.30
2022-10-25T10:53:49.514Z,16.40
2022-10-25T10:55:56.105Z,16.50
2022-10-25T10:58:03.058Z,16.50
2022-10-25T11:00:20.384Z,16.50
2022-10-25T11:02:27.730Z,16.60
2022-10-25T11:04:46.081Z,16.50
2022-10-25T11:06:51.004Z,16.40
2022-10-25T11:09:15.533Z,16.50
2022-10-25T11:11:21.833Z,16.60
2022-10-25T11:13:25.819Z,16.60
2022-10-25T11:15:37.317Z,16.60
2022-10-25T11:17:42.740Z,16.60
2022-10-25T11:20:02.616Z,16.60
2022-10-25T11:25:25.557Z,16.40
2022-10-25T11:27:39.619Z,16.20
2022-10-25T11:30:01.142Z,16.20
2022-10-25T11:32:20.524Z,16.10
2022-10-25T11:34:31.595Z,16.10
2022-10-25T11:36:51.594Z,16.10
2022-10-25T11:39:05.753Z,16.10
2022-10-25T11:41:22.250Z,16.20
2022-10-25T11:43:45.853Z,16.20
2022-10-25T11:45:58.327Z,16.20
2022-10-25T11:48:33.329Z,16.20
2022-10-25T11:50:43.317Z,16.20
2022-10-25T11:53:10.633Z,16.20
2022-10-25T11:55:27.462Z,16.20
2022-10-25T11:57:39.430Z,16.30
2022-10-25T11:59:59.473Z,16.30
2022-10-25T12:02:24.919Z,16.40
2022-10-25T12:04:49.763Z,16.50
2022-10-25T12:06:58.977Z,16.50
2022-10-25T12:09:06.790Z,16.50
2022-10-25T12:11:15.122Z,16.60
2022-10-25T12:13:25.919Z,16.40
2022-10-25T12:15:37.318Z,16.50
2022-10-25T12:17:40.100Z,16.70
2022-10-25T12:19:45.332Z,16.80
2022-10-25T12:21:51.813Z,17.40
2022-10-25T12:23:55.504Z,16.90
2022-10-25T12:26:02.166Z,17.00
2022-10-25T12:28:10.953Z,17.00
2022-10-25T12:30:16.833Z,17.00
2022-10-25T12:32:29.177Z,16.90
2022-10-25T12:34:40.428Z,16.90
2022-10-25T12:36:45.681Z,16.90
2022-10-25T12:38:47.913Z,16.80
2022-10-25T12:40:54.556Z,16.90
2022-10-25T12:43:02.749Z,17.00
2022-10-25T12:45:28.108Z,17.10
2022-10-25T12:47:55.630Z,17.10
2022-10-25T12:50:29.761Z,17.20
2022-10-25T12:52:35.341Z,17.20
2022-10-25T12:55:00.431Z,17.20
2022-10-25T12:57:14.350Z,17.30
2022-10-25T12:59:33.634Z,17.20
2022-10-25T13:01:53.562Z,17.20
2022-10-25T13:04:22.513Z,17.20
2022-10-25T13:06:34.268Z,17.30
2022-10-25T13:08:39.321Z,17.40
2022-10-25T13:10:46.296Z,17.30
2022-10-25T13:13:03.350Z,17.40
2022-10-25T13:15:06.677Z,17.40
2022-10-25T13:17:38.970Z,17.40
2022-10-25T13:19:59.773Z,17.50
2022-10-25T13:22:35.814Z,17.50
2022-10-25T13:24:41.759Z,17.60
2022-10-25T13:27:14.024Z,18.00
2022-10-25T13:29:47.551Z,17.50
2022-10-25T13:32:07.515Z,17.50
2022-10-25T13:34:36.372Z,17.40
2022-10-25T13:36:54.118Z,17.50
2022-10-25T13:39:05.503Z,17.50
2022-10-25T13:41:13.240Z,17.40
2022-10-25T13:43:20.079Z,17.30
2022-10-25T13:45:31.329Z,17.20
2022-10-25T13:47:38.738Z,17.10
2022-10-25T13:49:43.606Z,17.20
2022-10-25T13:51:49.264Z,17.20
2022-10-25T13:53:53.088Z,17.20
2022-10-25T13:56:06.014Z,17.70
2022-10-25T13:58:40.868Z,17.10
2022-10-25T14:00:47.952Z,17.10
2022-10-25T14:03:05.889Z,17.10
2022-10-25T14:05:11.067Z,17.10
2022-10-25T14:07:54.346Z,17.00
2022-10-25T14:10:00.357Z,16.90
2022-10-25T14:12:13.768Z,16.90
2022-10-25T14:14:24.448Z,16.80
2022-10-25T14:16:30.653Z,16.80
2022-10-25T14:18:35.964Z,16.70
2022-10-25T14:20:39.168Z,16.60
2022-10-25T14:22:43.435Z,16.60
2022-10-25T14:24:49.925Z,16.50
2022-10-25T14:26:57.139Z,16.40
2022-10-25T14:29:13.227Z,16.40
2022-10-25T14:31:23.055Z,16.30
2022-10-25T14:33:30.190Z,16.50
2022-10-25T14:35:35.181Z,16.40
2022-10-25T14:37:41.725Z,16.40
2022-10-25T14:39:52.346Z,16.40
2022-10-25T14:41:58.678Z,16.50
2022-10-25T14:44:02.693Z,16.40
2022-10-25T14:46:13.648Z,16.40
2022-10-25T14:48:18.399Z,16.40
2022-10-25T14:50:25.941Z,16.30
2022-10-25T14:52:30.763Z,16.20
2022-10-25T14:54:34.714Z,16.10
2022-10-25T14:56:40.509Z,16.10
2022-10-25T14:58:45.436Z,16.10
2022-10-25T15:00:56.192Z,16.00
2022-10-25T15:03:02.409Z,16.00
2022-10-25T15:05:05.899Z,16.00
2022-10-25T15:07:21.421Z,15.90
2022-10-25T15:09:42.817Z,16.00
2022-10-25T15:12:07.264Z,15.90
2022-10-25T15:14:22.285Z,15.90
2022-10-25T15:16:31.190Z,15.90
2022-10-25T15:18:36.192Z,15.80
2022-10-25T15:20:38.442Z,15.80
2022-10-25T15:22:44.403Z,15.70
2022-10-25T15:24:48.758Z,15.70
2022-10-25T15:26:57.067Z,15.60
2022-10-25T15:29:01.166Z,15.60
2022-10-25T15:31:07.420Z,15.50
2022-10-25T15:33:11.815Z,15.50
2022-10-25T15:35:24.083Z,15.50
2022-10-25T15:37:27.719Z,15.40
2022-10-25T15:39:31.196Z,15.30
2022-10-25T15:41:34.535Z,15.30
2022-10-25T15:43:36.775Z,15.30
2022-10-25T15:45:39.505Z,15.20
2022-10-25T15:47:47.360Z,15.20
2022-10-25T15:49:53.027Z,15.20
2022-10-25T15:51:55.423Z,15.20
2022-10-25T15:53:57.641Z,15.20
2022-10-25T15:55:59.833Z,15.10
2022-10-25T15:58:02.110Z,15.10
2022-10-25T16:00:04.930Z,15.10
2022-10-25T16:02:16.977Z,15.10
2022-10-25T16:04:24.610Z,15.00
2022-10-25T16:06:33.457Z,15.00
2022-10-25T16:10:59.343Z,14.90
2022-10-25T16:13:06.839Z,14.80
2022-10-25T16:15:12.338Z,14.80
2022-10-25T16:17:15.146Z,14.70
2022-10-25T16:19:18.651Z,14.70
2022-10-25T16:21:27.115Z,14.60
2022-10-25T16:23:29.713Z,14.60
2022-10-25T16:25:33.293Z,14.60
2022-10-25T16:27:35.715Z,14.60
2022-10-25T16:29:37.914Z,14.60
2022-10-25T16:31:40.125Z,14.50
2022-10-25T16:33:42.343Z,14.50
2022-10-25T16:35:44.680Z,14.40
2022-10-25T16:37:50.205Z,14.40
2022-10-25T16:39:52.517Z,14.40
2022-10-25T16:41:56.884Z,14.30
2022-10-25T16:43:59.553Z,14.30
2022-10-25T16:46:01.783Z,14.20
2022-10-25T16:48:05.714Z,14.10
2022-10-25T16:50:08.835Z,14.10
2022-10-25T16:52:11.034Z,14.10
2022-10-25T16:54:15.867Z,14.00
2022-10-25T16:56:18.558Z,14.00
2022-10-25T16:58:20.887Z,14.00
2022-10-25T17:00:23.674Z,14.00
2022-10-25T17:02:26.062Z,13.90
2022-10-25T17:04:28.267Z,13.90
2022-10-25T17:06:45.953Z,13.90
2022-10-25T17:08:49.195Z,13.90
2022-10-25T17:10:54.096Z,13.80
2022-10-25T17:13:03.536Z,13.80
2022-10-25T17:15:07.361Z,13.80
2022-10-25T17:17:09.658Z,13.70
2022-10-25T17:19:13.072Z,13.80
2022-10-25T17:21:16.630Z,13.80
2022-10-25T17:23:19.046Z,13.80
2022-10-25T17:25:21.526Z,13.80
2022-10-25T17:27:26.352Z,13.80
2022-10-25T17:29:28.534Z,13.80
2022-10-25T17:31:32.677Z,13.80
2022-10-25T17:33:34.794Z,13.90
2022-10-25T17:35:41.142Z,13.90
2022-10-25T17:37:44.552Z,13.80
2022-10-25T17:39:47.062Z,13.90
2022-10-25T17:41:50.454Z,13.90
2022-10-25T17:43:56.839Z,13.90
2022-10-25T17:46:02.901Z,13.90
2022-10-25T17:48:05.916Z,13.90
2022-10-25T17:50:09.095Z,13.90
2022-10-25T17:52:11.285Z,13.90
2022-10-25T17:54:13.561Z,13.90
2022-10-25T17:56:18.003Z,13.90
2022-10-25T17:58:20.182Z,14.00
2022-10-25T18:00:25.059Z,14.00
2022-10-25T18:02:27.362Z,14.00
2022-10-25T18:04:40.801Z,14.00
2022-10-25T18:06:49.369Z,14.00
2022-10-25T18:08:53.180Z,14.00
2022-10-25T18:10:55.455Z,14.00
2022-10-25T18:12:57.688Z,13.90
2022-10-25T18:14:59.879Z,14.10
2022-10-25T18:17:06.599Z,13.90
2022-10-25T18:19:13.274Z,14.10
2022-10-25T18:21:16.562Z,13.90
2022-10-25T18:23:19.121Z,13.90
2022-10-25T18:25:21.429Z,13.80
2022-10-25T18:27:23.624Z,13.80
2022-10-25T18:29:25.865Z,13.80
2022-10-25T18:31:28.158Z,13.80
2022-10-25T18:33:34.297Z,13.70
2022-10-25T18:35:36.539Z,13.70
2022-10-25T18:37:38.785Z,13.70
2022-10-25T18:39:41.113Z,13.70
2022-10-25T18:41:44.276Z,13.70
2022-10-25T18:43:46.709Z,13.70
2022-10-25T18:45:48.974Z,13.70
2022-10-25T18:47:55.768Z,13.70
2022-10-25T18:50:00.635Z,13.70
2022-10-25T18:52:03.199Z,13.70
2022-10-25T18:54:05.414Z,13.70
2022-10-25T18:56:09.661Z,13.70
2022-10-25T18:58:11.619Z,13.70
2022-10-25T19:00:15.842Z,13.70
2022-10-25T19:02:18.075Z,13.70
2022-10-25T19:04:20.432Z,13.50
2022-10-25T19:06:26.009Z,13.60
2022-10-25T19:08:28.619Z,13.60
2022-10-25T19:10:32.627Z,13.60
2022-10-25T19:12:34.869Z,13.50
2022-10-25T19:14:37.155Z,13.50
2022-10-25T19:16:41.382Z,13.50
2022-10-25T19:18:43.429Z,13.50
2022-10-25T19:20:46.561Z,13.50
2022-10-25T19:22:51.550Z,13.40
2022-10-25T19:24:53.845Z,13.60
2022-10-25T19:26:56.095Z,13.40
2022-10-25T19:29:00.339Z,13.40
2022-10-25T19:31:05.445Z,13.30
2022-10-25T19:33:07.432Z,13.30
2022-10-25T19:35:10.021Z,13.20
2022-10-25T19:37:12.298Z,13.20
2022-10-25T19:39:17.360Z,13.20
2022-10-25T19:41:23.010Z,13.20
2022-10-25T19:43:25.275Z,13.20
2022-10-25T19:45:27.572Z,13.50
2022-10-25T19:47:29.795Z,13.10
2022-10-25T19:49:32.318Z,13.10
2022-10-25T19:51:34.585Z,13.10
2022-10-25T19:53:39.156Z,13.10
2022-10-25T19:55:44.011Z,13.10
2022-10-25T19:57:46.696Z,13.10
2022-10-25T19:59:49.339Z,13.00
2022-10-25T20:01:51.686Z,13.00
2022-10-25T20:03:55.744Z,13.00
2022-10-25T20:05:59.413Z,12.90
2022-10-25T20:08:01.718Z,12.90
2022-10-25T20:10:04.049Z,12.90
2022-10-25T20:12:09.866Z,12.90
2022-10-25T20:14:12.183Z,12.90
2022-10-25T20:16:15.018Z,12.90
2022-10-25T20:18:18.652Z,12.90
2022-10-25T20:20:20.922Z,12.80
2022-10-25T20:22:23.284Z,12.90
2022-10-25T20:24:25.747Z,12.80
2022-10-25T20:26:32.484Z,12.80
2022-10-25T20:28:37.394Z,12.80
2022-10-25T20:30:39.932Z,12.80
2022-10-25T20:32:42.203Z,12.90
2022-10-25T20:34:44.376Z,12.80
2022-10-25T20:36:49.201Z,12.80
2022-10-25T20:38:51.849Z,12.80
2022-10-25T20:40:54.076Z,12.80
2022-10-25T20:42:57.881Z,12.80
2022-10-25T20:47:05.982Z,12.70
2022-10-25T20:49:08.281Z,12.70
2022-10-25T20:51:14.653Z,12.70
2022-10-25T20:53:18.142Z,12.60
2022-10-25T20:55:23.870Z,12.70
2022-10-25T20:57:26.097Z,12.70
2022-10-25T20:59:29.331Z,12.60
2022-10-25T21:01:34.410Z,12.60
2022-10-25T21:03:37.148Z,12.60
2022-10-25T21:05:43.131Z,12.60
2022-10-25T21:07:45.688Z,12.50
2022-10-25T21:09:49.528Z,12.50
2022-10-25T21:11:51.884Z,12.40
2022-10-25T21:13:55.031Z,12.40
2022-10-25T21:15:57.538Z,12.40
2022-10-25T21:18:02.937Z,12.30
2022-10-25T21:20:06.552Z,12.40
2022-10-25T21:22:08.828Z,12.40
2022-10-25T21:24:11.171Z,12.30
2022-10-25T21:26:13.924Z,12.30
2022-10-25T21:28:16.196Z,12.30
2022-10-25T21:30:18.494Z,12.30
2022-10-25T21:32:20.794Z,12.30
2022-10-25T21:34:25.627Z,12.30
2022-10-25T21:36:27.916Z,12.30
2022-10-25T21:38:30.448Z,12.20
2022-10-25T21:40:32.653Z,12.20
2022-10-25T21:42:35.099Z,12.40
2022-10-25T21:44:37.414Z,12.10
2022-10-25T21:46:39.640Z,12.30
2022-10-25T21:48:42.150Z,12.10
2022-10-25T21:50:53.846Z,12.00
2022-10-25T21:52:56.115Z,12.00
2022-10-25T21:54:58.471Z,12.00
2022-10-25T21:57:00.714Z,12.00
2022-10-25T21:59:02.923Z,12.00
2022-10-25T22:01:07.938Z,12.00
2022-10-25T22:03:10.259Z,12.00
2022-10-25T22:05:12.548Z,12.00
2022-10-25T22:07:17.420Z,12.00
2022-10-25T22:09:19.879Z,12.00
2022-10-25T22:11:24.352Z,11.90
2022-10-25T22:13:26.603Z,12.00
2022-10-25T22:15:30.646Z,11.90
2022-10-25T22:17:33.252Z,11.80
2022-10-25T22:19:35.514Z,11.80
2022-10-25T22:21:39.115Z,11.80
2022-10-25T22:23:44.141Z,11.80
2022-10-25T22:25:46.366Z,11.70
2022-10-25T22:27:48.541Z,11.70
2022-10-25T22:29:50.780Z,11.70
2022-10-25T22:31:52.979Z,11.70
2022-10-25T22:33:56.793Z,11.70
2022-10-25T22:36:02.141Z,11.70
2022-10-25T22:38:04.481Z,11.70
2022-10-25T22:40:10.952Z,11.70
2022-10-25T22:42:13.898Z,11.70
2022-10-25T22:44:16.426Z,12.10
2022-10-25T22:46:22.294Z,11.60
2022-10-25T22:48:24.549Z,11.60
2022-10-25T22:50:26.756Z,11.60
2022-10-25T22:52:29.171Z,11.60
2022-10-25T22:54:31.352Z,11.60
2022-10-25T22:56:38.847Z,11.60
2022-10-25T22:58:42.423Z,11.70
2022-10-25T23:00:44.807Z,11.60
2022-10-25T23:02:47.273Z,11.60
2022-10-25T23:04:49.604Z,11.50
2022-10-25T23:06:51.797Z,11.50
2022-10-25T23:08:54.859Z,11.50
2022-10-25T23:11:02.029Z,11.40
2022-10-25T23:13:07.734Z,11.50
2022-10-25T23:15:10.720Z,11.40
2022-10-25T23:17:13.936Z,11.40
2022-10-25T23:19:16.181Z,11.30
2022-10-25T23:21:19.992Z,11.30
2022-10-25T23:23:23.304Z,11.20
2022-10-25T23:25:25.495Z,11.20
2022-10-25T23:27:29.271Z,11.10
2022-10-25T23:29:34.060Z,11.00
2022-10-25T23:31:39.389Z,10.90
2022-10-25T23:33:42.377Z,10.80
2022-10-25T23:35:44.627Z,10.80
2022-10-25T23:37:47.113Z,10.80
2022-10-25T23:39:49.596Z,11.10
2022-10-25T23:41:56.683Z,10.80
2022-10-25T23:43:59.041Z,10.70
2022-10-25T23:46:04.112Z,10.70
2022-10-25T23:48:06.469Z,10.70
2022-10-25T23:50:09.854Z,10.70
2022-10-25T23:52:12.066Z,10.80
2022-10-25T23:54:14.273Z,10.70
2022-10-25T23:56:16.721Z,10.80
2022-10-25T23:58:19.027Z,10.80
